Hlavní strana
METAR-TAF:

METAR-TAF

Letiště :

St. Moritz, Švýcarsko

zeměpisná šířka: 46-32-03N, zeměpisná délka: 9-53-03E, výška: 1707 m

Aktuální stav počasí

Zpráva byla vytvořena před 30 minutami, v 17:20 UTC
Západojihozápadní vítr 2 kt
Teplota -14°C
Vlhkost vzduchu 60%
Tlak 1011 hPa
Viditelnost 10 km a více
Žádná oblačnost pod 1500 m, nevyskytují se cumulonimby.

METAR: LSZS 181720Z AUTO 24002KT CAVOK M14/M20 Q1011

Čas: 18:50 (17:50 UTC)

Předpověď počasí

Zpráva byla vytvořena před 3 hodinami a 25 minutami, v 14:25 UTC
Předpověď platná od 18 v 15 UTC do 18 v 24 UTC
Severní vítr 8 kt
Viditelnost 10 km a více
Žádná oblačnost pod 1500 m, nevyskytují se cumulonimby.
Pravděpodobnost 40%
od 18 v 21 UTC do 18 v 24 UTC
Viditelnost 10 km a více
Skoro jasno ve výšce 2000 ft

TAF: LSZS 181425Z 1815/1824 36008KT CAVOK TXM07/1815Z PROB40 1821/1824 9999 FEW020

Stav a předpovědi počasí z více než 4 000 letišť (zprávy METAR a TAF).

Červené a žluté tečky na mapě představují dostupné meteorologické stanice.

Když kurzor umístíte na tečku, zobrazí se název stanice.

Pak kliknutím zobrazíte stav a předpověď počasí.

Chcete-li změnit mapu, kliknutím na zelené tlačítko se znaménkem +mapu přiblížíte, kliknutím na zelené tlačítko se znaménkem – mapu oddálíte a kliknutím na zelené šipky přejdete na sousední mapy.


METAR-TAF: